map of TIP home
Great Circle Mapper logo
TIP - Airport
Location
City:  Tripoli, Libyan Arab Jamahiriya (Libya)
Name:Tripoli International Airport
ICAO / IATA:HLLT / TIP

Details
Type:Airport (Aerodrome, Airfield)
Use:Public/Civil, Military, International (customs port of entry)
Latitude:3239'49"N (32.663544)
Longitude:1309'32"E (13.159011)
Datum:WGS 1984
Elevation:263 ft (80 m)
Runways:2
Longest:11815 × 145 ft (3601 × 44 m), paved

Time
Time Zone:UTC+2
Local Time:

Weather
TAF:HLLT 241100Z 2412/2512 06010KT CAVOK
BECMG2418/2420 12010KT 8000 NSC
BECMG2510/2512 04012KT CAVOK = TAF HLLM 241100Z 2412/2512 07010KT CAVOK
BECMG2500/2502 14010KT 8000 NSC
BECMG2510/2512 04015KT CAVOK

Related Locations
Nearby:
Farthest:RAR: 11534 mi / 18562 km
Avarua [Rarotonga Intl], Rarotonga Island, CK

Find:

   beyond  
but within

Other Information
Maps:
NOTAMs:
Links:
Sources:

  
flag of Libyan Arab Jamahiriya (Libya)   

Sectional Chart

Flight Planning
at skyvector.com

Satellite Image

Google Maps Satellite View

 

Copyright © 2004-2014 Karl L. Swartz. All rights reserved.
The Great Circle Mapper name and logo are trademarks of the Great Circle Mapper.
All other trademarks mentioned herein belong to their respective owners.
Please see credits for attibutions and further copyright information.

  Follow gcmap on Facebook Follow gcmap on Twitter

hCard Microformat

Geo Microformat